createdAt,value
2022-11-10T00:00:35.602Z,8.30
2022-11-10T00:03:21.316Z,8.38
2022-11-10T00:06:09.541Z,8.30
2022-11-10T00:08:55.070Z,8.30
2022-11-10T00:11:41.615Z,8.30
2022-11-10T00:14:46.099Z,8.20
2022-11-10T00:17:32.398Z,8.20
2022-11-10T00:20:18.389Z,8.20
2022-11-10T00:23:04.074Z,8.22
2022-11-10T00:25:49.786Z,8.28
2022-11-10T00:28:35.065Z,8.30
2022-11-10T00:31:20.714Z,8.30
2022-11-10T00:34:13.218Z,8.30
2022-11-10T00:36:58.738Z,8.30
2022-11-10T00:39:44.219Z,8.30
2022-11-10T00:42:29.919Z,8.30
2022-11-10T00:45:15.582Z,8.30
2022-11-10T00:48:00.935Z,8.26
2022-11-10T00:50:46.555Z,8.22
2022-11-10T00:53:32.453Z,8.28
2022-11-10T00:56:19.543Z,8.30
2022-11-10T00:59:05.544Z,8.30
2022-11-10T01:01:50.849Z,8.30
2022-11-10T01:04:36.590Z,8.28
2022-11-10T01:07:22.288Z,8.24
2022-11-10T01:10:08.525Z,8.28
2022-11-10T01:12:54.273Z,8.30
2022-11-10T01:15:42.901Z,8.24
2022-11-10T01:18:28.230Z,8.24
2022-11-10T01:21:13.985Z,8.30
2022-11-10T01:24:00.094Z,8.30
2022-11-10T01:26:45.494Z,8.32
2022-11-10T01:29:31.342Z,8.34
2022-11-10T01:32:17.072Z,8.34
2022-11-10T01:35:02.829Z,8.30
2022-11-10T01:37:48.394Z,8.40
2022-11-10T01:40:34.094Z,8.40
2022-11-10T01:43:20.185Z,8.40
2022-11-10T01:46:13.011Z,8.42
2022-11-10T01:49:02.693Z,8.50
2022-11-10T01:52:09.994Z,8.56
2022-11-10T01:54:55.656Z,8.60
2022-11-10T01:57:42.689Z,8.60
2022-11-10T02:00:28.106Z,8.60
2022-11-10T02:03:26.145Z,8.60
2022-11-10T02:06:12.966Z,8.62
2022-11-10T02:09:01.081Z,8.68
2022-11-10T02:11:48.314Z,8.58
2022-11-10T02:14:34.102Z,8.50
2022-11-10T02:17:19.743Z,8.50
2022-11-10T02:20:11.917Z,8.50
2022-11-10T02:22:57.604Z,8.50
2022-11-10T02:25:43.901Z,8.50
2022-11-10T02:28:34.804Z,8.52
2022-11-10T02:31:20.355Z,8.60
2022-11-10T02:34:05.866Z,8.60
2022-11-10T02:36:51.345Z,8.70
2022-11-10T02:39:37.747Z,8.70
2022-11-10T02:42:23.562Z,8.70
2022-11-10T02:45:09.494Z,8.80
2022-11-10T02:47:55.003Z,8.80
2022-11-10T02:50:41.195Z,8.80
2022-11-10T02:53:26.568Z,8.80
2022-11-10T02:56:12.047Z,8.80
2022-11-10T02:58:57.522Z,8.80
2022-11-10T03:01:43.093Z,8.84
2022-11-10T03:04:28.913Z,8.88
2022-11-10T03:07:14.680Z,8.80
2022-11-10T03:10:00.270Z,8.80
2022-11-10T03:12:46.080Z,8.80
2022-11-10T03:15:31.740Z,8.80
2022-11-10T03:18:17.730Z,8.80
2022-11-10T03:21:03.210Z,8.80
2022-11-10T03:23:48.688Z,8.80
2022-11-10T03:26:34.375Z,8.80
2022-11-10T03:29:20.211Z,8.80
2022-11-10T03:32:05.638Z,8.70
2022-11-10T03:34:51.230Z,8.60
2022-11-10T03:37:37.007Z,8.50
2022-11-10T03:40:22.905Z,8.40
2022-11-10T03:43:11.834Z,8.40
2022-11-10T03:45:57.138Z,8.40
2022-11-10T03:48:43.005Z,8.30
2022-11-10T03:51:28.387Z,8.30
2022-11-10T03:54:13.871Z,8.32
2022-11-10T03:56:59.551Z,8.40
2022-11-10T03:59:44.943Z,8.44
2022-11-10T04:02:30.824Z,8.50
2022-11-10T04:05:35.043Z,8.56
2022-11-10T04:08:39.261Z,8.60
2022-11-10T04:11:44.103Z,8.70
2022-11-10T04:14:48.311Z,8.70
2022-11-10T04:17:33.996Z,8.80
2022-11-10T04:20:19.625Z,8.80
2022-11-10T04:23:24.281Z,8.80
2022-11-10T04:26:28.950Z,8.90
2022-11-10T04:29:17.937Z,8.90
2022-11-10T04:32:03.154Z,8.94
2022-11-10T04:34:48.547Z,9.00
2022-11-10T04:37:34.337Z,9.00
2022-11-10T04:40:19.822Z,9.00
2022-11-10T04:43:05.601Z,9.00
2022-11-10T04:45:51.149Z,9.04
2022-11-10T04:48:37.069Z,9.10
2022-11-10T04:51:32.827Z,9.10
2022-11-10T04:54:18.670Z,9.16
2022-11-10T04:57:03.894Z,9.20
2022-11-10T04:59:49.651Z,9.20
2022-11-10T05:02:39.391Z,9.20
2022-11-10T05:05:25.935Z,9.22
2022-11-10T05:08:12.115Z,9.26
2022-11-10T05:10:58.235Z,9.30
2022-11-10T05:13:44.520Z,9.30
2022-11-10T05:16:30.014Z,9.30
2022-11-10T05:19:15.756Z,9.30
2022-11-10T05:22:01.061Z,9.40
2022-11-10T05:24:46.733Z,9.40
2022-11-10T05:27:32.413Z,9.40
2022-11-10T05:30:18.202Z,9.40
2022-11-10T05:33:05.249Z,9.40
2022-11-10T05:35:51.223Z,9.40
2022-11-10T05:38:42.877Z,9.40
2022-11-10T05:41:29.026Z,9.40
2022-11-10T05:44:14.542Z,9.40
2022-11-10T05:46:59.986Z,9.40
2022-11-10T05:49:45.155Z,9.40
2022-11-10T05:52:30.699Z,9.46
2022-11-10T05:55:19.885Z,9.50
2022-11-10T05:58:05.618Z,9.50
2022-11-10T06:00:51.028Z,9.50
2022-11-10T06:03:36.577Z,9.50
2022-11-10T06:06:23.146Z,9.50
2022-11-10T06:09:09.141Z,9.52
2022-11-10T06:11:54.723Z,9.60
2022-11-10T06:14:40.351Z,9.58
2022-11-10T06:17:26.704Z,9.60
2022-11-10T06:20:15.034Z,9.62
2022-11-10T06:23:06.986Z,9.70
2022-11-10T06:25:52.576Z,9.70
2022-11-10T06:28:38.262Z,9.70
2022-11-10T06:31:24.037Z,9.80
2022-11-10T06:34:09.509Z,9.80
2022-11-10T06:36:54.940Z,9.86
2022-11-10T06:39:40.681Z,9.90
2022-11-10T06:42:26.569Z,9.94
2022-11-10T06:45:12.050Z,10.00
2022-11-10T06:48:07.907Z,10.00
2022-11-10T06:50:53.164Z,10.10
2022-11-10T06:53:38.724Z,10.10
2022-11-10T06:56:24.440Z,10.10
2022-11-10T06:59:10.260Z,10.20
2022-11-10T07:01:56.083Z,10.20
2022-11-10T07:04:42.910Z,10.20
2022-11-10T07:07:28.628Z,10.26
2022-11-10T07:10:15.143Z,10.30
2022-11-10T07:13:03.123Z,10.30
2022-11-10T07:15:48.769Z,10.38
2022-11-10T07:18:35.920Z,10.40
2022-11-10T07:21:21.977Z,10.40
2022-11-10T07:24:08.312Z,10.50
2022-11-10T07:26:53.638Z,10.50
2022-11-10T07:29:40.001Z,10.40
2022-11-10T07:32:25.826Z,10.30
2022-11-10T07:35:11.971Z,10.30
2022-11-10T07:38:01.145Z,10.20
2022-11-10T07:40:46.684Z,10.10
2022-11-10T07:43:32.398Z,10.00
2022-11-10T07:46:17.702Z,10.00
2022-11-10T07:49:03.552Z,10.08
2022-11-10T07:51:48.944Z,10.10
2022-11-10T07:54:34.420Z,10.20
2022-11-10T07:57:20.301Z,10.28
2022-11-10T08:00:06.413Z,10.40
2022-11-10T08:02:52.613Z,10.50
2022-11-10T08:05:39.511Z,10.60
2022-11-10T08:08:25.912Z,10.70
2022-11-10T08:11:11.768Z,10.80
2022-11-10T08:13:57.382Z,10.90
2022-11-10T08:16:42.865Z,11.00
2022-11-10T08:19:28.456Z,11.08
2022-11-10T08:22:14.437Z,11.10
2022-11-10T08:25:00.135Z,11.16
2022-11-10T08:27:45.865Z,11.20
2022-11-10T08:30:32.944Z,11.20
2022-11-10T08:33:21.300Z,11.20
2022-11-10T08:36:07.871Z,11.20
2022-11-10T08:38:53.350Z,11.28
2022-11-10T08:41:39.043Z,11.30
2022-11-10T08:44:24.544Z,11.30
2022-11-10T08:47:10.402Z,11.30
2022-11-10T08:49:55.881Z,11.30
2022-11-10T08:52:41.388Z,11.30
2022-11-10T08:55:27.016Z,11.30
2022-11-10T08:58:19.169Z,11.30
2022-11-10T09:01:09.917Z,11.40
2022-11-10T09:03:55.465Z,11.40
2022-11-10T09:06:41.002Z,11.48
2022-11-10T09:09:26.730Z,11.50
2022-11-10T09:12:12.208Z,11.50
2022-11-10T09:14:57.778Z,11.60
2022-11-10T09:17:43.679Z,11.64
2022-11-10T09:20:31.125Z,11.60
2022-11-10T09:23:19.583Z,11.60
2022-11-10T09:26:07.296Z,11.60
2022-11-10T09:28:53.275Z,11.66
2022-11-10T09:31:39.001Z,11.62
2022-11-10T09:34:24.539Z,11.68
2022-11-10T09:37:10.530Z,11.60
2022-11-10T09:40:01.050Z,11.60
2022-11-10T09:42:48.966Z,11.60
2022-11-10T09:45:42.438Z,11.70
2022-11-10T09:48:31.610Z,11.70
2022-11-10T09:51:33.151Z,11.70
2022-11-10T09:54:35.015Z,11.70
2022-11-10T09:57:25.218Z,11.70
2022-11-10T10:00:18.782Z,11.70
2022-11-10T10:03:08.153Z,11.62
2022-11-10T10:06:15.400Z,11.60
2022-11-10T10:09:25.798Z,11.60
2022-11-10T10:12:26.564Z,11.66
2022-11-10T10:15:38.628Z,11.60
2022-11-10T10:19:09.793Z,11.60
2022-11-10T10:22:23.665Z,11.60
2022-11-10T10:25:22.759Z,11.62
2022-11-10T10:28:24.777Z,11.70
2022-11-10T10:31:42.056Z,11.80
2022-11-10T10:34:31.698Z,11.98
2022-11-10T10:37:33.988Z,12.10
2022-11-10T10:40:24.313Z,12.12
2022-11-10T10:43:10.151Z,12.28
2022-11-10T10:46:19.505Z,12.40
2022-11-10T10:49:27.872Z,12.50
2022-11-10T10:52:25.029Z,12.50
2022-11-10T10:55:14.329Z,12.58
2022-11-10T10:58:18.880Z,12.60
2022-11-10T11:01:16.803Z,12.60
2022-11-10T11:04:27.289Z,12.62
2022-11-10T11:07:25.354Z,12.60
2022-11-10T11:10:34.702Z,12.50
2022-11-10T11:13:27.374Z,12.50
2022-11-10T11:16:13.136Z,12.50
2022-11-10T11:18:59.232Z,12.50
2022-11-10T11:22:19.734Z,12.50
2022-11-10T11:25:14.016Z,12.50
2022-11-10T11:28:30.575Z,12.40
2022-11-10T11:31:28.164Z,12.30
2022-11-10T11:34:55.448Z,12.20
2022-11-10T11:38:15.330Z,12.10
2022-11-10T11:41:49.233Z,12.10
2022-11-10T11:45:12.204Z,12.20
2022-11-10T11:48:23.360Z,12.24
2022-11-10T11:51:27.413Z,12.40
2022-11-10T11:54:55.070Z,12.40
2022-11-10T11:57:52.525Z,12.50
2022-11-10T12:01:23.678Z,12.60
2022-11-10T12:04:25.260Z,12.70
2022-11-10T12:07:29.654Z,12.80
2022-11-10T12:10:43.540Z,12.80
2022-11-10T12:13:44.133Z,12.90
2022-11-10T12:16:33.613Z,13.10
2022-11-10T12:19:58.322Z,13.20
2022-11-10T12:23:02.214Z,13.20
2022-11-10T12:25:58.752Z,13.20
2022-11-10T12:28:55.047Z,13.10
2022-11-10T12:31:45.071Z,13.00
2022-11-10T12:34:42.842Z,12.96
2022-11-10T12:37:50.757Z,12.90
2022-11-10T12:40:42.584Z,13.00
2022-11-10T12:43:40.852Z,13.00
2022-11-10T12:46:26.329Z,13.00
2022-11-10T12:49:39.355Z,13.00
2022-11-10T12:52:40.704Z,13.00
2022-11-10T12:55:40.618Z,13.00
2022-11-10T12:58:27.076Z,13.10
2022-11-10T13:01:20.416Z,13.20
2022-11-10T13:04:06.378Z,13.30
2022-11-10T13:07:08.884Z,13.30
2022-11-10T13:10:22.303Z,13.34
2022-11-10T13:13:15.496Z,13.34
2022-11-10T13:16:01.338Z,13.40
2022-11-10T13:18:52.860Z,13.50
2022-11-10T13:21:54.109Z,13.60
2022-11-10T13:24:44.342Z,13.50
2022-11-10T13:27:36.081Z,13.60
2022-11-10T13:30:48.859Z,13.68
2022-11-10T13:33:38.049Z,13.70
2022-11-10T13:36:48.576Z,13.70
2022-11-10T13:39:34.673Z,13.56
2022-11-10T13:42:24.906Z,13.50
2022-11-10T13:45:34.363Z,13.40
2022-11-10T13:48:50.506Z,13.40
2022-11-10T13:52:08.710Z,13.30
2022-11-10T13:55:15.776Z,13.30
2022-11-10T13:58:42.579Z,13.20
2022-11-10T14:01:30.531Z,13.18
2022-11-10T14:04:45.320Z,13.10
2022-11-10T14:07:41.511Z,13.00
2022-11-10T14:10:49.165Z,12.90
2022-11-10T14:13:49.029Z,12.80
2022-11-10T14:16:43.277Z,12.70
2022-11-10T14:19:43.005Z,12.70
2022-11-10T14:22:40.793Z,12.60
2022-11-10T14:25:39.692Z,12.60
2022-11-10T14:28:37.661Z,12.50
2022-11-10T14:31:26.251Z,12.50
2022-11-10T14:34:18.448Z,12.40
2022-11-10T14:37:05.156Z,12.40
2022-11-10T14:40:02.663Z,12.34
2022-11-10T14:42:48.300Z,12.30
2022-11-10T14:45:33.984Z,12.30
2022-11-10T14:48:24.817Z,12.20
2022-11-10T14:51:19.145Z,12.20
2022-11-10T14:54:04.788Z,12.10
2022-11-10T14:56:50.973Z,12.10
2022-11-10T14:59:37.969Z,12.00
2022-11-10T15:02:23.936Z,12.00
2022-11-10T15:05:15.719Z,11.90
2022-11-10T15:08:04.325Z,11.88
2022-11-10T15:10:53.325Z,11.80
2022-11-10T15:13:40.079Z,11.70
2022-11-10T15:16:38.597Z,11.70
2022-11-10T15:19:36.770Z,11.60
2022-11-10T15:22:31.469Z,11.50
2022-11-10T15:25:21.757Z,11.40
2022-11-10T15:28:32.781Z,11.30
2022-11-10T15:31:34.303Z,11.26
2022-11-10T15:34:41.803Z,11.20
2022-11-10T15:37:31.321Z,11.10
2022-11-10T15:40:44.533Z,11.00
2022-11-10T15:43:29.866Z,10.90
2022-11-10T15:46:20.825Z,10.80
2022-11-10T15:49:32.874Z,10.70
2022-11-10T15:52:23.694Z,10.60
2022-11-10T15:55:24.157Z,10.52
2022-11-10T15:58:23.829Z,10.50
2022-11-10T16:01:14.112Z,10.48
2022-11-10T16:04:00.219Z,10.40
2022-11-10T16:06:46.758Z,10.40
2022-11-10T16:09:32.546Z,10.30
2022-11-10T16:12:23.710Z,10.20
2022-11-10T16:15:19.677Z,10.20
2022-11-10T16:18:20.952Z,10.10
2022-11-10T16:21:06.976Z,10.00
2022-11-10T16:23:53.686Z,10.00
2022-11-10T16:26:39.575Z,9.90
2022-11-10T16:29:25.258Z,9.80
2022-11-10T16:32:12.449Z,9.80
2022-11-10T16:34:58.058Z,9.70
2022-11-10T16:37:44.200Z,9.60
2022-11-10T16:40:30.093Z,9.60
2022-11-10T16:43:19.605Z,9.50
2022-11-10T16:46:24.053Z,9.50
2022-11-10T16:49:37.546Z,9.50
2022-11-10T16:52:23.213Z,9.50
2022-11-10T16:55:13.928Z,9.42
2022-11-10T16:57:59.875Z,9.40
2022-11-10T17:00:48.412Z,9.40
2022-11-10T17:03:46.510Z,9.30
2022-11-10T17:06:32.625Z,9.30
2022-11-10T17:09:24.262Z,9.30
2022-11-10T17:12:16.265Z,9.30
2022-11-10T17:15:01.942Z,9.20
2022-11-10T17:17:53.928Z,9.20
2022-11-10T17:20:45.141Z,9.10
2022-11-10T17:23:35.414Z,9.08
2022-11-10T17:26:22.883Z,9.04
2022-11-10T17:29:17.823Z,9.00
2022-11-10T17:32:04.177Z,9.00
2022-11-10T17:34:49.885Z,8.94
2022-11-10T17:37:37.052Z,8.90
2022-11-10T17:40:28.325Z,8.90
2022-11-10T17:43:15.412Z,8.88
2022-11-10T17:46:00.991Z,8.80
2022-11-10T17:48:47.991Z,8.80
2022-11-10T17:51:35.953Z,8.80
2022-11-10T17:54:21.204Z,8.80
2022-11-10T17:57:10.280Z,8.78
2022-11-10T17:59:56.347Z,8.70
2022-11-10T18:02:44.017Z,8.70
2022-11-10T18:05:29.789Z,8.70
2022-11-10T18:08:17.843Z,8.70
2022-11-10T18:11:03.573Z,8.70
2022-11-10T18:13:49.502Z,8.70
2022-11-10T18:16:35.597Z,8.64
2022-11-10T18:19:21.354Z,8.60
2022-11-10T18:22:07.710Z,8.60
2022-11-10T18:24:53.277Z,8.60
2022-11-10T18:27:39.007Z,8.54
2022-11-10T18:30:24.426Z,8.50
2022-11-10T18:33:11.900Z,8.50
2022-11-10T18:36:00.306Z,8.50
2022-11-10T18:38:45.984Z,8.50
2022-11-10T18:41:49.867Z,8.50
2022-11-10T18:44:37.156Z,8.48
2022-11-10T18:47:23.313Z,8.40
2022-11-10T18:50:09.650Z,8.40
2022-11-10T18:52:55.292Z,8.40
2022-11-10T18:55:45.446Z,8.40
2022-11-10T18:58:31.267Z,8.30
2022-11-10T19:01:17.338Z,8.30
2022-11-10T19:04:02.738Z,8.30
2022-11-10T19:06:48.475Z,8.26
2022-11-10T19:09:33.772Z,8.20
2022-11-10T19:12:25.400Z,8.20
2022-11-10T19:15:12.811Z,8.22
2022-11-10T19:17:58.296Z,8.26
2022-11-10T19:20:44.058Z,8.20
2022-11-10T19:23:29.695Z,8.26
2022-11-10T19:26:22.615Z,8.30
2022-11-10T19:29:08.322Z,8.30
2022-11-10T19:31:53.813Z,8.34
2022-11-10T19:34:39.421Z,8.38
2022-11-10T19:37:25.010Z,8.38
2022-11-10T19:40:11.539Z,8.40
2022-11-10T19:42:57.793Z,8.40
2022-11-10T19:45:43.150Z,8.40
2022-11-10T19:48:33.749Z,8.40
2022-11-10T19:51:19.668Z,8.40
2022-11-10T19:54:06.147Z,8.40
2022-11-10T19:56:51.699Z,8.40
2022-11-10T19:59:37.305Z,8.44
2022-11-10T20:02:22.894Z,8.40
2022-11-10T20:05:15.962Z,8.40
2022-11-10T20:08:13.528Z,8.40
2022-11-10T20:11:18.392Z,8.40
2022-11-10T20:14:05.785Z,8.44
2022-11-10T20:16:51.446Z,8.44
2022-11-10T20:19:41.086Z,8.42
2022-11-10T20:22:27.500Z,8.50
2022-11-10T20:25:13.107Z,8.46
2022-11-10T20:28:07.007Z,8.40
2022-11-10T20:30:57.540Z,8.40
2022-11-10T20:33:43.325Z,8.40
2022-11-10T20:36:31.827Z,8.40
2022-11-10T20:39:17.831Z,8.40
2022-11-10T20:42:03.820Z,8.40
2022-11-10T20:44:49.598Z,8.40
2022-11-10T20:47:35.434Z,8.40
2022-11-10T20:50:24.361Z,8.40
2022-11-10T20:53:10.744Z,8.40
2022-11-10T20:56:02.091Z,8.40
2022-11-10T20:58:49.291Z,8.40
2022-11-10T21:01:35.495Z,8.40
2022-11-10T21:04:21.487Z,8.30
2022-11-10T21:07:07.047Z,8.30
2022-11-10T21:09:52.241Z,8.30
2022-11-10T21:12:49.924Z,8.30
2022-11-10T21:15:39.546Z,8.30
2022-11-10T21:18:32.344Z,8.30
2022-11-10T21:21:26.426Z,8.28
2022-11-10T21:24:12.407Z,8.20
2022-11-10T21:26:59.490Z,8.20
2022-11-10T21:29:45.071Z,8.20
2022-11-10T21:32:30.585Z,8.20
2022-11-10T21:35:17.270Z,8.20
2022-11-10T21:38:04.663Z,8.20
2022-11-10T21:40:50.264Z,8.20
2022-11-10T21:43:35.864Z,8.20
2022-11-10T21:46:21.113Z,8.16
2022-11-10T21:49:08.061Z,8.10
2022-11-10T21:51:53.840Z,8.10
2022-11-10T21:54:39.914Z,8.10
2022-11-10T21:57:26.030Z,8.10
2022-11-10T22:00:13.796Z,8.10
2022-11-10T22:03:02.332Z,8.10
2022-11-10T22:05:47.756Z,8.10
2022-11-10T22:08:34.833Z,8.10
2022-11-10T22:11:40.524Z,8.10
2022-11-10T22:14:44.656Z,8.10
2022-11-10T22:17:48.770Z,8.10
2022-11-10T22:20:34.620Z,8.08
2022-11-10T22:23:39.899Z,8.04
2022-11-10T22:26:25.313Z,8.04
2022-11-10T22:29:11.049Z,8.04
2022-11-10T22:31:56.665Z,8.00
2022-11-10T22:34:42.148Z,8.00
2022-11-10T22:37:33.159Z,8.00
2022-11-10T22:40:37.343Z,8.00
2022-11-10T22:43:41.728Z,8.00
2022-11-10T22:46:27.871Z,8.00
2022-11-10T22:49:16.039Z,8.00
2022-11-10T22:52:01.902Z,8.00
2022-11-10T22:54:47.359Z,8.00
2022-11-10T22:57:33.014Z,7.98
2022-11-10T23:00:18.360Z,7.90
2022-11-10T23:03:04.126Z,7.90
2022-11-10T23:05:56.522Z,7.90
2022-11-10T23:08:43.987Z,7.90
2022-11-10T23:11:32.608Z,7.80
2022-11-10T23:14:18.019Z,7.80
2022-11-10T23:17:03.601Z,7.80
2022-11-10T23:19:49.283Z,7.70
2022-11-10T23:22:35.069Z,7.74
2022-11-10T23:25:20.447Z,7.70
2022-11-10T23:28:05.904Z,7.70
2022-11-10T23:30:51.788Z,7.72
2022-11-10T23:33:39.341Z,7.70
2022-11-10T23:36:27.604Z,7.76
2022-11-10T23:39:13.781Z,7.72
2022-11-10T23:41:59.238Z,7.70
2022-11-10T23:44:44.900Z,7.70
2022-11-10T23:47:30.426Z,7.70
2022-11-10T23:50:16.288Z,7.70
2022-11-10T23:53:01.968Z,7.68
2022-11-10T23:55:57.712Z,7.68
2022-11-10T23:58:43.386Z,7.64
